sensor_id;sensor_type;location;lat;lon;timestamp;P1;durP1;ratioP1;P2;durP2;ratioP2
32946;SDS011;54465;51.230;22.504;2022-11-23T00:01:19;34.47;;;15.27;;
32946;SDS011;54465;51.230;22.504;2022-11-23T00:04:24;35.58;;;12.48;;
32946;SDS011;54465;51.230;22.504;2022-11-23T00:07:32;31.95;;;12.15;;
32946;SDS011;54465;51.230;22.504;2022-11-23T00:10:34;29.83;;;11.88;;
32946;SDS011;54465;51.230;22.504;2022-11-23T00:13:38;34.15;;;13.82;;
32946;SDS011;54465;51.230;22.504;2022-11-23T00:16:46;33.15;;;13.38;;
32946;SDS011;54465;51.230;22.504;2022-11-23T00:19:48;40.15;;;13.35;;
32946;SDS011;54465;51.230;22.504;2022-11-23T00:22:52;36.53;;;13.10;;
32946;SDS011;54465;51.230;22.504;2022-11-23T00:25:55;37.70;;;14.90;;
32946;SDS011;54465;51.230;22.504;2022-11-23T00:28:57;34.58;;;13.82;;
32946;SDS011;54465;51.230;22.504;2022-11-23T00:32:00;35.17;;;14.35;;
32946;SDS011;54465;51.230;22.504;2022-11-23T00:35:05;32.10;;;12.52;;
32946;SDS011;54465;51.230;22.504;2022-11-23T00:38:10;29.10;;;12.85;;
32946;SDS011;54465;51.230;22.504;2022-11-23T00:41:13;31.42;;;11.95;;
32946;SDS011;54465;51.230;22.504;2022-11-23T00:44:17;27.27;;;12.40;;
32946;SDS011;54465;51.230;22.504;2022-11-23T00:47:20;30.38;;;12.20;;
32946;SDS011;54465;51.230;22.504;2022-11-23T00:50:23;30.58;;;12.48;;
32946;SDS011;54465;51.230;22.504;2022-11-23T00:53:28;24.83;;;11.80;;
32946;SDS011;54465;51.230;22.504;2022-11-23T00:56:31;26.77;;;11.27;;
32946;SDS011;54465;51.230;22.504;2022-11-23T00:59:34;25.50;;;11.15;;
32946;SDS011;54465;51.230;22.504;2022-11-23T01:02:36;24.15;;;10.73;;
32946;SDS011;54465;51.230;22.504;2022-11-23T01:05:44;28.33;;;11.25;;
32946;SDS011;54465;51.230;22.504;2022-11-23T01:08:55;21.80;;;10.35;;
32946;SDS011;54465;51.230;22.504;2022-11-23T01:12:00;26.70;;;12.02;;
32946;SDS011;54465;51.230;22.504;2022-11-23T01:15:03;25.80;;;11.85;;
32946;SDS011;54465;51.230;22.504;2022-11-23T01:18:07;26.73;;;11.43;;
32946;SDS011;54465;51.230;22.504;2022-11-23T01:21:10;27.63;;;10.52;;
32946;SDS011;54465;51.230;22.504;2022-11-23T01:24:15;27.27;;;11.82;;
32946;SDS011;54465;51.230;22.504;2022-11-23T01:27:19;30.67;;;11.18;;
32946;SDS011;54465;51.230;22.504;2022-11-23T01:30:21;26.83;;;11.38;;
32946;SDS011;54465;51.230;22.504;2022-11-23T01:33:26;26.77;;;11.90;;
32946;SDS011;54465;51.230;22.504;2022-11-23T01:36:31;22.40;;;10.05;;
32946;SDS011;54465;51.230;22.504;2022-11-23T01:39:36;22.13;;;9.43;;
32946;SDS011;54465;51.230;22.504;2022-11-23T01:42:42;29.52;;;10.57;;
32946;SDS011;54465;51.230;22.504;2022-11-23T01:45:57;19.77;;;10.13;;
32946;SDS011;54465;51.230;22.504;2022-11-23T01:49:02;19.60;;;9.70;;
32946;SDS011;54465;51.230;22.504;2022-11-23T01:52:08;21.75;;;9.20;;
32946;SDS011;54465;51.230;22.504;2022-11-23T01:55:16;26.10;;;10.35;;
32946;SDS011;54465;51.230;22.504;2022-11-23T01:58:19;26.92;;;10.00;;
32946;SDS011;54465;51.230;22.504;2022-11-23T02:01:23;24.55;;;9.95;;
32946;SDS011;54465;51.230;22.504;2022-11-23T02:04:31;21.85;;;9.95;;
32946;SDS011;54465;51.230;22.504;2022-11-23T02:07:37;26.48;;;10.15;;
32946;SDS011;54465;51.230;22.504;2022-11-23T02:10:42;30.45;;;11.63;;
32946;SDS011;54465;51.230;22.504;2022-11-23T02:13:46;21.13;;;10.07;;
32946;SDS011;54465;51.230;22.504;2022-11-23T02:16:51;24.70;;;9.45;;
32946;SDS011;54465;51.230;22.504;2022-11-23T02:19:56;21.40;;;8.98;;
32946;SDS011;54465;51.230;22.504;2022-11-23T02:23:09;24.17;;;10.02;;
32946;SDS011;54465;51.230;22.504;2022-11-23T02:26:28;19.15;;;9.63;;
32946;SDS011;54465;51.230;22.504;2022-11-23T02:29:34;17.10;;;8.45;;
32946;SDS011;54465;51.230;22.504;2022-11-23T02:32:37;22.48;;;9.40;;
32946;SDS011;54465;51.230;22.504;2022-11-23T02:35:45;23.67;;;10.05;;
32946;SDS011;54465;51.230;22.504;2022-11-23T02:38:49;26.63;;;9.23;;
32946;SDS011;54465;51.230;22.504;2022-11-23T02:41:54;22.67;;;9.88;;
32946;SDS011;54465;51.230;22.504;2022-11-23T02:44:58;21.15;;;8.52;;
32946;SDS011;54465;51.230;22.504;2022-11-23T02:48:07;23.77;;;9.32;;
32946;SDS011;54465;51.230;22.504;2022-11-23T02:51:12;19.33;;;8.93;;
32946;SDS011;54465;51.230;22.504;2022-11-23T02:54:15;21.52;;;9.50;;
32946;SDS011;54465;51.230;22.504;2022-11-23T02:57:19;18.77;;;8.98;;
32946;SDS011;54465;51.230;22.504;2022-11-23T03:00:21;19.90;;;8.95;;
32946;SDS011;54465;51.230;22.504;2022-11-23T03:03:24;18.88;;;8.73;;
32946;SDS011;54465;51.230;22.504;2022-11-23T03:06:27;23.50;;;9.23;;
32946;SDS011;54465;51.230;22.504;2022-11-23T03:09:30;28.95;;;10.07;;
32946;SDS011;54465;51.230;22.504;2022-11-23T03:12:34;20.40;;;8.68;;
32946;SDS011;54465;51.230;22.504;2022-11-23T03:15:36;20.73;;;8.68;;
32946;SDS011;54465;51.230;22.504;2022-11-23T03:18:40;19.67;;;8.93;;
32946;SDS011;54465;51.230;22.504;2022-11-23T03:21:43;18.02;;;8.80;;
32946;SDS011;54465;51.230;22.504;2022-11-23T03:24:45;21.52;;;8.52;;
32946;SDS011;54465;51.230;22.504;2022-11-23T03:27:51;21.42;;;9.10;;
32946;SDS011;54465;51.230;22.504;2022-11-23T03:30:54;17.15;;;8.50;;
32946;SDS011;54465;51.230;22.504;2022-11-23T03:33:58;19.98;;;9.38;;
32946;SDS011;54465;51.230;22.504;2022-11-23T03:37:03;19.70;;;8.15;;
32946;SDS011;54465;51.230;22.504;2022-11-23T03:40:06;24.00;;;9.38;;
32946;SDS011;54465;51.230;22.504;2022-11-23T03:43:30;18.23;;;8.52;;
32946;SDS011;54465;51.230;22.504;2022-11-23T03:46:34;19.83;;;8.35;;
32946;SDS011;54465;51.230;22.504;2022-11-23T03:49:36;17.95;;;8.48;;
32946;SDS011;54465;51.230;22.504;2022-11-23T03:52:39;17.95;;;8.00;;
32946;SDS011;54465;51.230;22.504;2022-11-23T03:55:44;17.98;;;9.07;;
32946;SDS011;54465;51.230;22.504;2022-11-23T03:58:50;13.15;;;6.43;;
32946;SDS011;54465;51.230;22.504;2022-11-23T04:01:52;28.52;;;8.13;;
32946;SDS011;54465;51.230;22.504;2022-11-23T04:04:59;15.40;;;7.28;;
32946;SDS011;54465;51.230;22.504;2022-11-23T04:08:39;18.83;;;7.75;;
32946;SDS011;54465;51.230;22.504;2022-11-23T04:11:48;19.65;;;7.70;;
32946;SDS011;54465;51.230;22.504;2022-11-23T04:14:54;14.95;;;7.82;;
32946;SDS011;54465;51.230;22.504;2022-11-23T04:17:56;15.38;;;8.10;;
32946;SDS011;54465;51.230;22.504;2022-11-23T04:21:00;14.07;;;7.05;;
32946;SDS011;54465;51.230;22.504;2022-11-23T04:24:02;22.80;;;7.85;;
32946;SDS011;54465;51.230;22.504;2022-11-23T04:27:07;17.48;;;7.65;;
32946;SDS011;54465;51.230;22.504;2022-11-23T04:33:18;14.57;;;7.13;;
32946;SDS011;54465;51.230;22.504;2022-11-23T04:36:21;19.23;;;7.07;;
32946;SDS011;54465;51.230;22.504;2022-11-23T04:39:24;20.38;;;8.30;;
32946;SDS011;54465;51.230;22.504;2022-11-23T04:42:58;19.65;;;7.70;;
32946;SDS011;54465;51.230;22.504;2022-11-23T04:46:04;18.85;;;8.02;;
32946;SDS011;54465;51.230;22.504;2022-11-23T04:49:08;17.52;;;7.88;;
32946;SDS011;54465;51.230;22.504;2022-11-23T04:52:11;23.30;;;7.80;;
32946;SDS011;54465;51.230;22.504;2022-11-23T04:55:21;23.58;;;7.55;;
32946;SDS011;54465;51.230;22.504;2022-11-23T04:58:30;18.63;;;8.07;;
32946;SDS011;54465;51.230;22.504;2022-11-23T05:01:35;22.60;;;8.70;;
32946;SDS011;54465;51.230;22.504;2022-11-23T05:04:56;23.75;;;8.52;;
32946;SDS011;54465;51.230;22.504;2022-11-23T05:08:03;18.10;;;8.77;;
32946;SDS011;54465;51.230;22.504;2022-11-23T05:11:33;21.67;;;8.95;;
32946;SDS011;54465;51.230;22.504;2022-11-23T05:14:36;17.85;;;8.48;;
32946;SDS011;54465;51.230;22.504;2022-11-23T05:17:42;27.98;;;9.35;;
32946;SDS011;54465;51.230;22.504;2022-11-23T05:20:53;20.92;;;8.85;;
32946;SDS011;54465;51.230;22.504;2022-11-23T05:23:56;25.45;;;9.95;;
32946;SDS011;54465;51.230;22.504;2022-11-23T05:27:00;18.75;;;9.55;;
32946;SDS011;54465;51.230;22.504;2022-11-23T05:30:03;18.05;;;9.32;;
32946;SDS011;54465;51.230;22.504;2022-11-23T05:33:12;16.85;;;8.45;;
32946;SDS011;54465;51.230;22.504;2022-11-23T05:36:15;14.90;;;7.93;;
32946;SDS011;54465;51.230;22.504;2022-11-23T05:39:18;30.23;;;8.07;;
32946;SDS011;54465;51.230;22.504;2022-11-23T05:42:24;19.20;;;8.20;;
32946;SDS011;54465;51.230;22.504;2022-11-23T05:45:31;20.17;;;8.57;;
32946;SDS011;54465;51.230;22.504;2022-11-23T05:48:34;18.48;;;8.93;;
32946;SDS011;54465;51.230;22.504;2022-11-23T05:51:42;20.95;;;9.57;;
32946;SDS011;54465;51.230;22.504;2022-11-23T05:54:45;20.50;;;10.13;;
32946;SDS011;54465;51.230;22.504;2022-11-23T05:57:48;24.17;;;10.13;;
32946;SDS011;54465;51.230;22.504;2022-11-23T06:00:55;18.05;;;8.02;;
32946;SDS011;54465;51.230;22.504;2022-11-23T06:07:23;16.95;;;7.90;;
32946;SDS011;54465;51.230;22.504;2022-11-23T06:10:41;13.57;;;7.00;;
32946;SDS011;54465;51.230;22.504;2022-11-23T06:13:45;17.77;;;7.78;;
32946;SDS011;54465;51.230;22.504;2022-11-23T06:16:49;16.67;;;8.27;;
32946;SDS011;54465;51.230;22.504;2022-11-23T06:23:24;18.90;;;8.60;;
32946;SDS011;54465;51.230;22.504;2022-11-23T06:26:27;20.60;;;9.63;;
32946;SDS011;54465;51.230;22.504;2022-11-23T06:29:29;19.95;;;9.88;;
32946;SDS011;54465;51.230;22.504;2022-11-23T06:32:32;29.05;;;10.90;;
32946;SDS011;54465;51.230;22.504;2022-11-23T06:35:38;24.85;;;11.27;;
32946;SDS011;54465;51.230;22.504;2022-11-23T06:38:40;31.50;;;12.30;;
32946;SDS011;54465;51.230;22.504;2022-11-23T06:41:48;26.83;;;11.10;;
32946;SDS011;54465;51.230;22.504;2022-11-23T06:44:51;25.05;;;8.98;;
32946;SDS011;54465;51.230;22.504;2022-11-23T06:47:55;17.75;;;8.77;;
32946;SDS011;54465;51.230;22.504;2022-11-23T06:51:00;14.93;;;8.15;;
32946;SDS011;54465;51.230;22.504;2022-11-23T06:54:05;15.18;;;6.85;;
32946;SDS011;54465;51.230;22.504;2022-11-23T06:57:08;13.75;;;6.53;;
32946;SDS011;54465;51.230;22.504;2022-11-23T07:00:11;14.45;;;7.57;;
32946;SDS011;54465;51.230;22.504;2022-11-23T07:03:20;15.65;;;7.78;;
32946;SDS011;54465;51.230;22.504;2022-11-23T07:06:31;16.75;;;8.65;;
32946;SDS011;54465;51.230;22.504;2022-11-23T07:09:38;16.80;;;8.38;;
32946;SDS011;54465;51.230;22.504;2022-11-23T07:13:02;16.90;;;8.68;;
32946;SDS011;54465;51.230;22.504;2022-11-23T07:16:07;14.02;;;7.57;;
32946;SDS011;54465;51.230;22.504;2022-11-23T07:19:10;13.20;;;7.15;;
32946;SDS011;54465;51.230;22.504;2022-11-23T07:22:14;12.32;;;6.63;;
32946;SDS011;54465;51.230;22.504;2022-11-23T07:25:16;13.25;;;7.20;;
32946;SDS011;54465;51.230;22.504;2022-11-23T07:28:19;13.30;;;7.40;;
32946;SDS011;54465;51.230;22.504;2022-11-23T07:31:21;19.83;;;9.93;;
32946;SDS011;54465;51.230;22.504;2022-11-23T07:34:25;19.48;;;9.70;;
32946;SDS011;54465;51.230;22.504;2022-11-23T07:37:32;15.85;;;8.40;;
32946;SDS011;54465;51.230;22.504;2022-11-23T07:40:41;16.92;;;8.18;;
32946;SDS011;54465;51.230;22.504;2022-11-23T07:43:56;14.02;;;8.40;;
32946;SDS011;54465;51.230;22.504;2022-11-23T07:46:58;14.98;;;8.20;;
32946;SDS011;54465;51.230;22.504;2022-11-23T07:50:00;17.80;;;8.38;;
32946;SDS011;54465;51.230;22.504;2022-11-23T07:53:04;21.92;;;9.13;;
32946;SDS011;54465;51.230;22.504;2022-11-23T07:56:07;19.95;;;9.77;;
32946;SDS011;54465;51.230;22.504;2022-11-23T07:59:11;16.65;;;9.23;;
32946;SDS011;54465;51.230;22.504;2022-11-23T08:02:18;17.35;;;9.00;;
32946;SDS011;54465;51.230;22.504;2022-11-23T08:05:21;15.32;;;8.57;;
32946;SDS011;54465;51.230;22.504;2022-11-23T08:08:28;17.65;;;8.88;;
32946;SDS011;54465;51.230;22.504;2022-11-23T08:11:31;17.33;;;9.15;;
32946;SDS011;54465;51.230;22.504;2022-11-23T08:14:35;15.63;;;8.18;;
32946;SDS011;54465;51.230;22.504;2022-11-23T08:17:37;17.17;;;8.98;;
32946;SDS011;54465;51.230;22.504;2022-11-23T08:20:40;16.73;;;9.68;;
32946;SDS011;54465;51.230;22.504;2022-11-23T08:23:45;16.83;;;8.30;;
32946;SDS011;54465;51.230;22.504;2022-11-23T08:26:47;17.13;;;9.00;;
32946;SDS011;54465;51.230;22.504;2022-11-23T08:29:49;17.27;;;9.60;;
32946;SDS011;54465;51.230;22.504;2022-11-23T08:32:54;17.20;;;9.77;;
32946;SDS011;54465;51.230;22.504;2022-11-23T08:35:56;17.15;;;9.68;;
32946;SDS011;54465;51.230;22.504;2022-11-23T08:39:05;15.13;;;9.10;;
32946;SDS011;54465;51.230;22.504;2022-11-23T08:42:10;17.90;;;8.77;;
32946;SDS011;54465;51.230;22.504;2022-11-23T08:45:13;19.65;;;9.48;;
32946;SDS011;54465;51.230;22.504;2022-11-23T08:48:16;16.02;;;9.32;;
32946;SDS011;54465;51.230;22.504;2022-11-23T08:51:18;20.38;;;10.27;;
32946;SDS011;54465;51.230;22.504;2022-11-23T08:54:24;18.30;;;9.93;;
32946;SDS011;54465;51.230;22.504;2022-11-23T08:57:29;19.05;;;11.07;;
32946;SDS011;54465;51.230;22.504;2022-11-23T09:00:31;18.42;;;10.18;;
32946;SDS011;54465;51.230;22.504;2022-11-23T09:03:33;16.42;;;9.73;;
32946;SDS011;54465;51.230;22.504;2022-11-23T09:06:35;15.60;;;9.77;;
32946;SDS011;54465;51.230;22.504;2022-11-23T09:09:40;18.50;;;9.98;;
32946;SDS011;54465;51.230;22.504;2022-11-23T09:12:42;18.60;;;9.98;;
32946;SDS011;54465;51.230;22.504;2022-11-23T09:15:47;18.38;;;10.30;;
32946;SDS011;54465;51.230;22.504;2022-11-23T09:18:49;20.35;;;9.68;;
32946;SDS011;54465;51.230;22.504;2022-11-23T09:21:56;17.38;;;9.63;;
32946;SDS011;54465;51.230;22.504;2022-11-23T09:25:00;18.95;;;10.15;;
32946;SDS011;54465;51.230;22.504;2022-11-23T09:28:03;23.40;;;12.38;;
32946;SDS011;54465;51.230;22.504;2022-11-23T09:31:05;21.30;;;12.23;;
32946;SDS011;54465;51.230;22.504;2022-11-23T09:34:09;23.00;;;12.05;;
32946;SDS011;54465;51.230;22.504;2022-11-23T09:37:13;24.73;;;13.43;;
32946;SDS011;54465;51.230;22.504;2022-11-23T09:40:16;25.65;;;13.40;;
32946;SDS011;54465;51.230;22.504;2022-11-23T09:43:34;23.63;;;12.85;;
32946;SDS011;54465;51.230;22.504;2022-11-23T09:46:46;21.77;;;12.68;;
32946;SDS011;54465;51.230;22.504;2022-11-23T09:50:11;21.40;;;11.82;;
32946;SDS011;54465;51.230;22.504;2022-11-23T09:53:20;25.63;;;13.77;;
32946;SDS011;54465;51.230;22.504;2022-11-23T09:56:31;21.05;;;12.07;;
32946;SDS011;54465;51.230;22.504;2022-11-23T10:02:48;22.20;;;11.77;;
32946;SDS011;54465;51.230;22.504;2022-11-23T10:05:55;23.70;;;13.38;;
32946;SDS011;54465;51.230;22.504;2022-11-23T10:09:10;22.58;;;11.68;;
32946;SDS011;54465;51.230;22.504;2022-11-23T10:12:43;27.20;;;11.68;;
32946;SDS011;54465;51.230;22.504;2022-11-23T10:15:52;23.42;;;11.82;;
32946;SDS011;54465;51.230;22.504;2022-11-23T10:19:18;21.23;;;12.15;;
32946;SDS011;54465;51.230;22.504;2022-11-23T10:22:34;21.27;;;11.88;;
32946;SDS011;54465;51.230;22.504;2022-11-23T10:25:46;26.00;;;13.30;;
32946;SDS011;54465;51.230;22.504;2022-11-23T10:28:54;23.95;;;12.68;;
32946;SDS011;54465;51.230;22.504;2022-11-23T10:32:12;24.40;;;12.75;;
32946;SDS011;54465;51.230;22.504;2022-11-23T10:35:24;23.13;;;11.23;;
32946;SDS011;54465;51.230;22.504;2022-11-23T10:38:29;28.58;;;12.27;;
32946;SDS011;54465;51.230;22.504;2022-11-23T10:41:33;26.80;;;14.10;;
32946;SDS011;54465;51.230;22.504;2022-11-23T10:44:37;30.35;;;14.73;;
32946;SDS011;54465;51.230;22.504;2022-11-23T10:47:49;28.30;;;14.05;;
32946;SDS011;54465;51.230;22.504;2022-11-23T10:50:52;23.80;;;12.88;;
32946;SDS011;54465;51.230;22.504;2022-11-23T10:53:57;20.58;;;11.82;;
32946;SDS011;54465;51.230;22.504;2022-11-23T10:57:03;22.88;;;12.00;;
32946;SDS011;54465;51.230;22.504;2022-11-23T11:00:25;22.92;;;12.75;;
32946;SDS011;54465;51.230;22.504;2022-11-23T11:03:30;24.17;;;12.70;;
32946;SDS011;54465;51.230;22.504;2022-11-23T11:06:36;27.83;;;14.07;;
32946;SDS011;54465;51.230;22.504;2022-11-23T11:09:47;36.90;;;17.42;;
32946;SDS011;54465;51.230;22.504;2022-11-23T11:12:50;30.60;;;15.77;;
32946;SDS011;54465;51.230;22.504;2022-11-23T11:15:57;35.05;;;17.35;;
32946;SDS011;54465;51.230;22.504;2022-11-23T11:19:19;28.95;;;16.42;;
32946;SDS011;54465;51.230;22.504;2022-11-23T11:22:29;24.83;;;12.73;;
32946;SDS011;54465;51.230;22.504;2022-11-23T11:28:39;29.00;;;15.85;;
32946;SDS011;54465;51.230;22.504;2022-11-23T11:35:08;30.83;;;16.85;;
32946;SDS011;54465;51.230;22.504;2022-11-23T11:38:16;31.83;;;17.25;;
32946;SDS011;54465;51.230;22.504;2022-11-23T11:41:21;33.03;;;17.00;;
32946;SDS011;54465;51.230;22.504;2022-11-23T11:44:25;32.47;;;18.45;;
32946;SDS011;54465;51.230;22.504;2022-11-23T11:47:30;31.75;;;17.20;;
32946;SDS011;54465;51.230;22.504;2022-11-23T11:53:42;32.33;;;17.08;;
32946;SDS011;54465;51.230;22.504;2022-11-23T11:56:49;31.95;;;17.30;;
32946;SDS011;54465;51.230;22.504;2022-11-23T11:59:55;34.67;;;17.25;;
32946;SDS011;54465;51.230;22.504;2022-11-23T12:03:05;30.48;;;17.02;;
32946;SDS011;54465;51.230;22.504;2022-11-23T12:06:16;28.50;;;16.45;;
32946;SDS011;54465;51.230;22.504;2022-11-23T12:09:23;35.90;;;18.15;;
32946;SDS011;54465;51.230;22.504;2022-11-23T12:12:32;34.47;;;17.88;;
32946;SDS011;54465;51.230;22.504;2022-11-23T12:15:37;29.20;;;15.45;;
32946;SDS011;54465;51.230;22.504;2022-11-23T12:22:17;27.40;;;16.33;;
32946;SDS011;54465;51.230;22.504;2022-11-23T12:25:45;31.48;;;17.95;;
32946;SDS011;54465;51.230;22.504;2022-11-23T12:29:00;33.78;;;17.27;;
32946;SDS011;54465;51.230;22.504;2022-11-23T12:32:20;35.08;;;19.23;;
32946;SDS011;54465;51.230;22.504;2022-11-23T12:35:43;31.67;;;17.63;;
32946;SDS011;54465;51.230;22.504;2022-11-23T12:38:58;30.73;;;17.63;;
32946;SDS011;54465;51.230;22.504;2022-11-23T12:42:11;34.25;;;18.80;;
32946;SDS011;54465;51.230;22.504;2022-11-23T12:45:38;34.58;;;19.30;;
32946;SDS011;54465;51.230;22.504;2022-11-23T12:49:07;35.53;;;18.95;;
32946;SDS011;54465;51.230;22.504;2022-11-23T12:52:28;33.47;;;19.15;;
32946;SDS011;54465;51.230;22.504;2022-11-23T12:55:42;34.40;;;17.33;;
32946;SDS011;54465;51.230;22.504;2022-11-23T12:58:53;32.90;;;17.23;;
32946;SDS011;54465;51.230;22.504;2022-11-23T13:01:59;34.90;;;18.95;;
32946;SDS011;54465;51.230;22.504;2022-11-23T13:05:20;31.92;;;16.42;;
32946;SDS011;54465;51.230;22.504;2022-11-23T13:12:27;30.90;;;15.95;;
32946;SDS011;54465;51.230;22.504;2022-11-23T13:22:43;27.52;;;15.30;;
32946;SDS011;54465;51.230;22.504;2022-11-23T13:32:58;28.58;;;14.63;;
32946;SDS011;54465;51.230;22.504;2022-11-23T13:36:38;25.80;;;14.43;;
32946;SDS011;54465;51.230;22.504;2022-11-23T13:43:07;25.80;;;14.68;;
32946;SDS011;54465;51.230;22.504;2022-11-23T13:46:20;24.33;;;13.80;;
32946;SDS011;54465;51.230;22.504;2022-11-23T13:49:36;22.70;;;13.05;;
32946;SDS011;54465;51.230;22.504;2022-11-23T13:52:46;23.58;;;14.13;;
32946;SDS011;54465;51.230;22.504;2022-11-23T13:55:51;25.10;;;15.02;;
32946;SDS011;54465;51.230;22.504;2022-11-23T13:58:55;24.58;;;14.40;;
32946;SDS011;54465;51.230;22.504;2022-11-23T14:02:21;22.73;;;13.63;;
32946;SDS011;54465;51.230;22.504;2022-11-23T14:05:30;23.98;;;13.52;;
32946;SDS011;54465;51.230;22.504;2022-11-23T14:08:59;24.35;;;13.65;;
32946;SDS011;54465;51.230;22.504;2022-11-23T14:12:12;26.90;;;14.18;;
32946;SDS011;54465;51.230;22.504;2022-11-23T14:15:23;25.95;;;15.35;;
32946;SDS011;54465;51.230;22.504;2022-11-23T14:18:34;26.20;;;15.25;;
32946;SDS011;54465;51.230;22.504;2022-11-23T14:21:56;25.67;;;15.30;;
32946;SDS011;54465;51.230;22.504;2022-11-23T14:25:12;23.83;;;14.77;;
32946;SDS011;54465;51.230;22.504;2022-11-23T14:28:32;24.92;;;14.63;;
32946;SDS011;54465;51.230;22.504;2022-11-23T14:31:48;25.83;;;14.63;;
32946;SDS011;54465;51.230;22.504;2022-11-23T14:35:07;28.75;;;15.45;;
32946;SDS011;54465;51.230;22.504;2022-11-23T14:38:26;27.65;;;15.15;;
32946;SDS011;54465;51.230;22.504;2022-11-23T14:41:43;28.70;;;15.75;;
32946;SDS011;54465;51.230;22.504;2022-11-23T14:44:51;27.98;;;15.43;;
32946;SDS011;54465;51.230;22.504;2022-11-23T14:48:09;28.25;;;15.18;;
32946;SDS011;54465;51.230;22.504;2022-11-23T14:54:53;31.95;;;16.17;;
32946;SDS011;54465;51.230;22.504;2022-11-23T14:57:58;30.42;;;16.38;;
32946;SDS011;54465;51.230;22.504;2022-11-23T15:01:17;30.02;;;16.10;;
32946;SDS011;54465;51.230;22.504;2022-11-23T15:04:25;30.60;;;15.75;;
32946;SDS011;54465;51.230;22.504;2022-11-23T15:07:44;26.92;;;15.40;;
32946;SDS011;54465;51.230;22.504;2022-11-23T15:10:54;26.73;;;15.68;;
32946;SDS011;54465;51.230;22.504;2022-11-23T15:14:01;27.05;;;15.13;;
32946;SDS011;54465;51.230;22.504;2022-11-23T15:17:13;33.45;;;16.90;;
32946;SDS011;54465;51.230;22.504;2022-11-23T15:20:19;33.42;;;18.00;;
32946;SDS011;54465;51.230;22.504;2022-11-23T15:23:25;35.08;;;18.05;;
32946;SDS011;54465;51.230;22.504;2022-11-23T15:26:33;35.20;;;18.20;;
32946;SDS011;54465;51.230;22.504;2022-11-23T15:29:48;35.00;;;18.52;;
32946;SDS011;54465;51.230;22.504;2022-11-23T15:33:07;35.25;;;17.83;;
32946;SDS011;54465;51.230;22.504;2022-11-23T15:36:13;35.13;;;19.70;;
32946;SDS011;54465;51.230;22.504;2022-11-23T15:39:17;38.60;;;19.27;;
32946;SDS011;54465;51.230;22.504;2022-11-23T15:42:23;32.65;;;17.77;;
32946;SDS011;54465;51.230;22.504;2022-11-23T15:45:37;31.42;;;16.77;;
32946;SDS011;54465;51.230;22.504;2022-11-23T15:48:58;32.40;;;17.67;;
32946;SDS011;54465;51.230;22.504;2022-11-23T15:52:03;33.03;;;17.73;;
32946;SDS011;54465;51.230;22.504;2022-11-23T15:55:05;33.22;;;16.52;;
32946;SDS011;54465;51.230;22.504;2022-11-23T15:58:16;31.23;;;17.40;;
32946;SDS011;54465;51.230;22.504;2022-11-23T16:01:20;29.33;;;17.05;;
32946;SDS011;54465;51.230;22.504;2022-11-23T16:04:24;27.15;;;15.60;;
32946;SDS011;54465;51.230;22.504;2022-11-23T16:07:47;30.63;;;17.15;;
32946;SDS011;54465;51.230;22.504;2022-11-23T16:10:51;29.13;;;15.05;;
32946;SDS011;54465;51.230;22.504;2022-11-23T16:14:15;29.23;;;15.93;;
32946;SDS011;54465;51.230;22.504;2022-11-23T16:17:19;32.08;;;16.73;;
32946;SDS011;54465;51.230;22.504;2022-11-23T16:20:23;28.85;;;15.48;;
32946;SDS011;54465;51.230;22.504;2022-11-23T16:23:28;27.42;;;15.38;;
32946;SDS011;54465;51.230;22.504;2022-11-23T16:26:42;28.98;;;14.90;;
32946;SDS011;54465;51.230;22.504;2022-11-23T16:29:47;26.27;;;15.45;;
32946;SDS011;54465;51.230;22.504;2022-11-23T16:32:51;29.33;;;14.75;;
32946;SDS011;54465;51.230;22.504;2022-11-23T16:35:54;28.50;;;15.52;;
32946;SDS011;54465;51.230;22.504;2022-11-23T16:38:58;30.10;;;14.85;;
32946;SDS011;54465;51.230;22.504;2022-11-23T16:42:00;24.85;;;14.40;;
32946;SDS011;54465;51.230;22.504;2022-11-23T16:45:03;24.92;;;13.85;;
32946;SDS011;54465;51.230;22.504;2022-11-23T16:51:44;25.10;;;13.38;;
32946;SDS011;54465;51.230;22.504;2022-11-23T16:54:50;24.67;;;13.95;;
32946;SDS011;54465;51.230;22.504;2022-11-23T16:57:53;20.30;;;12.95;;
32946;SDS011;54465;51.230;22.504;2022-11-23T17:00:56;24.35;;;13.63;;
32946;SDS011;54465;51.230;22.504;2022-11-23T17:03:58;22.52;;;13.48;;
32946;SDS011;54465;51.230;22.504;2022-11-23T17:07:03;21.90;;;13.48;;
32946;SDS011;54465;51.230;22.504;2022-11-23T17:10:07;25.20;;;14.68;;
32946;SDS011;54465;51.230;22.504;2022-11-23T17:13:10;23.48;;;14.57;;
32946;SDS011;54465;51.230;22.504;2022-11-23T17:16:17;24.63;;;14.10;;
32946;SDS011;54465;51.230;22.504;2022-11-23T17:19:21;26.30;;;13.93;;
32946;SDS011;54465;51.230;22.504;2022-11-23T17:22:23;24.55;;;13.80;;
32946;SDS011;54465;51.230;22.504;2022-11-23T17:25:27;23.55;;;13.48;;
32946;SDS011;54465;51.230;22.504;2022-11-23T17:28:29;26.92;;;14.10;;
32946;SDS011;54465;51.230;22.504;2022-11-23T17:31:32;22.58;;;13.35;;
32946;SDS011;54465;51.230;22.504;2022-11-23T17:34:35;20.02;;;12.77;;
32946;SDS011;54465;51.230;22.504;2022-11-23T17:37:37;21.15;;;12.43;;
32946;SDS011;54465;51.230;22.504;2022-11-23T17:40:42;24.83;;;13.13;;
32946;SDS011;54465;51.230;22.504;2022-11-23T17:43:44;24.10;;;15.15;;
32946;SDS011;54465;51.230;22.504;2022-11-23T17:46:50;25.40;;;14.88;;
32946;SDS011;54465;51.230;22.504;2022-11-23T17:49:55;23.48;;;13.35;;
32946;SDS011;54465;51.230;22.504;2022-11-23T17:52:58;26.05;;;14.60;;
32946;SDS011;54465;51.230;22.504;2022-11-23T17:56:03;24.65;;;13.60;;
32946;SDS011;54465;51.230;22.504;2022-11-23T18:02:33;23.90;;;12.52;;
32946;SDS011;54465;51.230;22.504;2022-11-23T18:05:41;22.02;;;12.93;;
32946;SDS011;54465;51.230;22.504;2022-11-23T18:08:46;22.85;;;12.80;;
32946;SDS011;54465;51.230;22.504;2022-11-23T18:11:51;19.65;;;11.90;;
32946;SDS011;54465;51.230;22.504;2022-11-23T18:14:54;22.63;;;12.73;;
32946;SDS011;54465;51.230;22.504;2022-11-23T18:17:56;21.80;;;12.55;;
32946;SDS011;54465;51.230;22.504;2022-11-23T18:20:59;22.13;;;12.88;;
32946;SDS011;54465;51.230;22.504;2022-11-23T18:24:11;20.05;;;12.13;;
32946;SDS011;54465;51.230;22.504;2022-11-23T18:27:16;21.42;;;12.25;;
32946;SDS011;54465;51.230;22.504;2022-11-23T18:30:20;24.67;;;12.80;;
32946;SDS011;54465;51.230;22.504;2022-11-23T18:33:22;20.65;;;12.88;;
32946;SDS011;54465;51.230;22.504;2022-11-23T18:36:25;22.80;;;11.98;;
32946;SDS011;54465;51.230;22.504;2022-11-23T18:39:28;21.05;;;11.35;;
32946;SDS011;54465;51.230;22.504;2022-11-23T18:42:32;17.63;;;10.30;;
32946;SDS011;54465;51.230;22.504;2022-11-23T18:45:34;18.27;;;9.93;;
32946;SDS011;54465;51.230;22.504;2022-11-23T18:48:36;15.57;;;9.55;;
32946;SDS011;54465;51.230;22.504;2022-11-23T18:51:39;17.25;;;10.20;;
32946;SDS011;54465;51.230;22.504;2022-11-23T18:54:41;19.23;;;11.35;;
32946;SDS011;54465;51.230;22.504;2022-11-23T18:57:47;15.98;;;10.80;;
32946;SDS011;54465;51.230;22.504;2022-11-23T19:00:52;19.88;;;10.65;;
32946;SDS011;54465;51.230;22.504;2022-11-23T19:03:55;17.67;;;10.48;;